Allen Jay, North Carolina
Current Conditions -  °F | °C
As of 4:54 PM on Friday 24 Oct 2014 (Local Time) from KGSO Reporting Station
Broken Clouds Broken Clouds  
Wind Chill: 68°   Ceiling: 25000
Heat Index: 68°   Visibility: 10mi
Dew Point: 39°   Wind: 3mph
Humidity: 35%   Direction: 360°N
Pressure: 29.97"   Gusts: NA
Location:  35.9136°N, 79.9465°W
Report Text: KGSO 242054Z 36003KT 10SM FEW160 BKN250 20/04 A2997 RMK AO2 SLP146 T02000039 56010
Loading
Personal Weather Stations






























Interactive Weather Map
Tropical Storm Tracking
New forecast layout! Learn more

10-Day Weather Forecast

Advertisements
Track Severe Weather on mobile